Waverly, Colorado
Current Conditions -  °F | °C
As of 12:52 PM on Friday 31 Oct 2014 (Local Time) from KALS Reporting Station
Clear Clear  
Wind Chill: 57°   Ceiling: Unl
Heat Index: 57°   Visibility: 10mi
Dew Point: 23°   Wind: 5mph
Humidity: 27%   Direction: NA
Pressure: 30.34"   Gusts: NA
Location:  37.469°N, 105.836°W
Report Text: KALS 311852Z AUTO VRB04KT 10SM CLR 14/M05 A3034 RMK AO2 SLP236 T01391050
Loading
Personal Weather Stations






























Interactive Weather Map
Tropical Storm Tracking
New forecast layout! Learn more

10-Day Weather Forecast

Advertisements
Track Severe Weather on mobile